Time;durP1;ratioP1;P1;durP2;ratioP2;P2;SDS_P1;SDS_P2;PMS_P1;PMS_P2;Temp;Humidity;BMP_temperature;BMP_pressure;BME280_temperature;BME280_humidity;BME280_pressure;Samples;Min_cycle;Max_cycle;Signal;HPM_P1;HPM_P2
2021/08/30 00:02:05;;;;;;;4.93;3.33;;;16.80;99.90;;;;;;5029744;28;20025;-63
2021/08/30 00:04:31;;;;;;;4.30;2.92;;;16.80;99.90;;;;;;5049240;28;20136;-63
2021/08/30 00:06:56;;;;;;;5.00;2.90;;;16.80;99.90;;;;;;5039051;28;20024;-63
2021/08/30 00:09:22;;;;;;;4.40;2.95;;;16.80;99.90;;;;;;5049458;28;20021;-63
2021/08/30 00:11:47;;;;;;;4.22;2.60;;;16.80;99.90;;;;;;5024156;28;20021;-63
2021/08/30 00:14:13;;;;;;;4.13;2.90;;;16.80;99.90;;;;;;5052671;28;20035;-63
2021/08/30 00:16:38;;;;;;;4.47;2.78;;;16.80;99.90;;;;;;5031701;28;20037;-63
2021/08/30 00:19:04;;;;;;;3.80;2.50;;;16.80;99.90;;;;;;5033568;28;20125;-63
2021/08/30 00:21:30;;;;;;;4.25;2.65;;;16.80;99.90;;;;;;5031512;28;20037;-64
2021/08/30 00:23:55;;;;;;;4.15;2.60;;;16.80;99.90;;;;;;5033449;28;20438;-64
2021/08/30 00:26:21;;;;;;;5.65;2.80;;;16.80;99.90;;;;;;5033653;28;20021;-64
2021/08/30 00:28:46;;;;;;;4.20;2.67;;;16.80;99.90;;;;;;5044321;28;20482;-64
2021/08/30 00:31:12;;;;;;;5.68;3.00;;;16.80;99.90;;;;;;5013733;28;20112;-64
2021/08/30 00:33:38;;;;;;;4.15;2.80;;;16.80;99.90;;;;;;5050641;28;20381;-64
2021/08/30 00:36:04;;;;;;;3.72;2.65;;;16.80;99.90;;;;;;5032825;28;20112;-64
2021/08/30 00:38:29;;;;;;;4.22;2.75;;;16.80;99.90;;;;;;5031171;28;20629;-64
2021/08/30 00:40:55;;;;;;;4.78;2.75;;;16.80;99.90;;;;;;5013597;28;20441;-64
2021/08/30 00:43:20;;;;;;;4.25;2.78;;;16.80;99.90;;;;;;5030294;28;20025;-65
2021/08/30 00:45:46;;;;;;;5.63;3.13;;;16.80;99.90;;;;;;5034966;28;20025;-64
2021/08/30 00:48:11;;;;;;;5.15;3.00;;;16.80;99.90;;;;;;5027999;28;20018;-64
2021/08/30 00:50:37;;;;;;;5.13;3.00;;;16.90;99.90;;;;;;5032915;28;20469;-64
2021/08/30 00:53:03;;;;;;;4.22;2.78;;;16.80;99.90;;;;;;5025432;28;20076;-64
2021/08/30 00:55:29;;;;;;;3.88;2.60;;;16.80;99.90;;;;;;5013399;28;20116;-63
2021/08/30 00:57:54;;;;;;;4.88;3.10;;;16.90;99.90;;;;;;5044522;28;20440;-64
2021/08/30 01:00:20;;;;;;;5.05;3.03;;;16.90;99.90;;;;;;5052962;28;20059;-64
2021/08/30 01:02:46;;;;;;;3.95;2.75;;;16.90;99.90;;;;;;5047198;28;20491;-64
2021/08/30 01:05:15;;;;;;;4.10;2.80;;;16.90;99.90;;;;;;5052922;28;20017;-64
2021/08/30 01:08:03;;;;;;;5.93;2.40;;;16.90;99.90;;;;;;5036381;28;20029;-64
2021/08/30 01:10:39;;;;;;;5.57;3.10;;;16.90;99.90;;;;;;5031744;28;20068;-64
2021/08/30 01:13:12;;;;;;;4.32;2.72;;;16.90;99.90;;;;;;5044205;28;20033;-64
2021/08/30 01:15:40;;;;;;;3.83;2.55;;;16.80;99.90;;;;;;5034384;28;20136;-64
2021/08/30 01:18:22;;;;;;;5.53;2.97;;;16.80;99.90;;;;;;5028652;28;20073;-64
2021/08/30 01:21:03;;;;;;;3.42;2.67;;;16.80;99.90;;;;;;5023423;28;20032;-64
2021/08/30 01:23:30;;;;;;;4.90;3.53;;;16.80;99.90;;;;;;5049075;28;20052;-64
2021/08/30 01:25:59;;;;;;;5.35;3.63;;;16.80;99.90;;;;;;5032573;28;20029;-64
2021/08/30 01:28:32;;;;;;;7.78;3.58;;;16.70;99.90;;;;;;5031238;28;20557;-64
2021/08/30 01:31:00;;;;;;;5.60;3.17;;;16.70;99.90;;;;;;5031129;28;20029;-64
2021/08/30 01:33:27;;;;;;;4.28;3.20;;;16.60;99.90;;;;;;5032713;28;20041;-64
2021/08/30 01:35:52;;;;;;;5.15;3.60;;;16.70;99.90;;;;;;5032261;28;20526;-64
2021/08/30 01:38:19;;;;;;;5.07;3.70;;;16.60;99.90;;;;;;5039022;28;20037;-63
2021/08/30 01:40:46;;;;;;;4.43;3.30;;;16.60;99.90;;;;;;5049253;28;20206;-64
2021/08/30 01:43:14;;;;;;;4.63;3.22;;;16.70;99.90;;;;;;5030865;28;20116;-64
2021/08/30 01:45:40;;;;;;;5.13;3.40;;;16.70;99.90;;;;;;5032268;28;20032;-64
2021/08/30 01:48:06;;;;;;;4.10;3.20;;;16.70;99.90;;;;;;5029706;28;20026;-64
2021/08/30 01:50:33;;;;;;;5.05;3.38;;;16.70;99.90;;;;;;5032278;28;20055;-64
2021/08/30 01:53:04;;;;;;;4.60;3.33;;;16.80;99.90;;;;;;5035952;28;20029;-64
2021/08/30 01:55:44;;;;;;;4.68;3.28;;;16.80;99.90;;;;;;5036147;28;20109;-64
2021/08/30 02:00:49;;;;;;;5.13;3.63;;;16.80;99.90;;;;;;5031651;28;20040;-64
2021/08/30 02:03:21;;;;;;;4.97;3.70;;;16.90;99.90;;;;;;5039312;28;20021;-64
2021/08/30 02:05:52;;;;;;;4.75;3.50;;;16.90;99.90;;;;;;5033931;28;20104;-64
2021/08/30 02:08:22;;;;;;;4.07;3.17;;;16.90;99.90;;;;;;5030848;28;20063;-64
2021/08/30 02:10:49;;;;;;;3.83;3.10;;;16.90;99.90;;;;;;5031103;28;20322;-64
2021/08/30 02:13:16;;;;;;;3.75;3.00;;;16.80;99.90;;;;;;5036223;28;20063;-64
2021/08/30 02:15:42;;;;;;;4.72;2.90;;;16.80;99.90;;;;;;5045204;28;20033;-64
2021/08/30 02:18:25;;;;;;;4.72;3.35;;;16.80;99.90;;;;;;5038595;28;20037;-64
2021/08/30 02:21:03;;;;;;;5.15;3.35;;;16.80;99.90;;;;;;5044353;28;20381;-64
2021/08/30 02:23:34;;;;;;;4.75;2.95;;;16.80;99.90;;;;;;5030694;28;20381;-64
2021/08/30 02:26:07;;;;;;;4.20;3.40;;;16.80;99.90;;;;;;5034632;28;20383;-64
2021/08/30 02:28:34;;;;;;;4.38;3.00;;;16.80;99.90;;;;;;5031208;28;20359;-64
2021/08/30 02:31:00;;;;;;;4.63;3.47;;;16.70;99.90;;;;;;5016053;28;20383;-64
2021/08/30 02:33:27;;;;;;;5.53;3.15;;;16.70;99.90;;;;;;5033039;28;20377;-64
2021/08/30 02:35:53;;;;;;;3.95;3.00;;;16.70;99.90;;;;;;5044698;28;20036;-64
2021/08/30 02:38:18;;;;;;;4.43;2.75;;;16.70;99.90;;;;;;5039420;28;20124;-64
2021/08/30 02:40:44;;;;;;;4.80;3.30;;;16.70;99.90;;;;;;5031769;28;20113;-64
2021/08/30 02:43:10;;;;;;;3.95;2.92;;;16.70;99.90;;;;;;5030926;28;20025;-64
2021/08/30 02:45:36;;;;;;;3.90;3.05;;;16.70;99.90;;;;;;5031599;28;20022;-64
2021/08/30 02:48:03;;;;;;;4.82;3.25;;;16.70;99.90;;;;;;5028077;28;20538;-64
2021/08/30 02:50:31;;;;;;;4.18;2.85;;;16.70;99.90;;;;;;5031308;28;20029;-64
2021/08/30 02:52:59;;;;;;;4.50;3.25;;;16.70;99.90;;;;;;5030794;28;20036;-64
2021/08/30 02:55:25;;;;;;;5.93;2.72;;;16.70;99.90;;;;;;5025854;28;20033;-64
2021/08/30 02:57:51;;;;;;;4.30;3.05;;;16.70;99.90;;;;;;5038557;28;20037;-64
2021/08/30 03:00:17;;;;;;;4.40;3.10;;;16.70;99.90;;;;;;5052092;28;20017;-64
2021/08/30 03:02:44;;;;;;;4.90;3.40;;;16.70;99.90;;;;;;5032459;28;20036;-64
2021/08/30 03:05:11;;;;;;;4.20;2.92;;;16.70;99.90;;;;;;5033538;28;20108;-64
2021/08/30 03:07:37;;;;;;;4.68;3.60;;;16.70;99.90;;;;;;5037932;28;20033;-64
2021/08/30 03:10:05;;;;;;;4.50;3.30;;;16.70;99.90;;;;;;5041941;28;20022;-64
2021/08/30 03:12:34;;;;;;;4.85;3.30;;;16.80;99.90;;;;;;5034339;28;20091;-64
2021/08/30 03:15:06;;;;;;;4.93;3.25;;;16.80;99.90;;;;;;5034236;28;20037;-64
2021/08/30 03:17:33;;;;;;;4.30;2.97;;;16.80;99.90;;;;;;5033182;28;20591;-64
2021/08/30 03:20:00;;;;;;;4.25;3.03;;;16.90;99.90;;;;;;5034842;28;20116;-64
2021/08/30 03:22:26;;;;;;;4.95;3.45;;;16.90;99.90;;;;;;5035666;28;20056;-64
2021/08/30 03:24:53;;;;;;;4.32;3.22;;;16.90;99.90;;;;;;5033683;28;20445;-64
2021/08/30 03:27:19;;;;;;;4.95;3.63;;;16.80;99.90;;;;;;5032541;28;20056;-64
2021/08/30 03:29:45;;;;;;;4.28;3.17;;;16.90;99.90;;;;;;5048581;28;20107;-64
2021/08/30 03:32:13;;;;;;;5.07;3.20;;;16.90;99.90;;;;;;5023106;28;20525;-64
2021/08/30 03:34:39;;;;;;;5.30;3.45;;;16.90;99.90;;;;;;5014953;28;20372;-64
2021/08/30 03:37:06;;;;;;;4.78;3.55;;;16.90;99.90;;;;;;5031891;28;20036;-64
2021/08/30 03:39:31;;;;;;;4.38;3.15;;;16.90;99.90;;;;;;5034362;28;20527;-64
2021/08/30 03:41:57;;;;;;;6.90;3.80;;;16.90;99.90;;;;;;5033753;28;20029;-64
2021/08/30 03:44:25;;;;;;;5.43;3.45;;;16.90;99.90;;;;;;5051944;28;20029;-64
2021/08/30 03:46:54;;;;;;;6.60;3.33;;;16.90;99.90;;;;;;5036105;28;20359;-64
2021/08/30 03:49:22;;;;;;;4.85;3.53;;;16.90;99.90;;;;;;5033468;28;20478;-64
2021/08/30 03:51:48;;;;;;;5.85;3.67;;;16.90;99.90;;;;;;5031621;28;20033;-64
2021/08/30 03:54:13;;;;;;;5.78;4.03;;;16.90;99.90;;;;;;5034952;28;20103;-64
2021/08/30 03:56:41;;;;;;;4.93;4.22;;;16.90;99.90;;;;;;5019915;28;20120;-64
2021/08/30 03:59:07;;;;;;;5.80;3.88;;;16.90;99.90;;;;;;5031103;28;20539;-64
2021/08/30 04:01:33;;;;;;;6.30;4.40;;;16.90;99.90;;;;;;5032415;28;20025;-64
2021/08/30 04:04:01;;;;;;;7.15;4.68;;;16.90;99.90;;;;;;5032749;28;20033;-64
2021/08/30 04:06:31;;;;;;;5.43;4.20;;;16.90;99.90;;;;;;5034338;28;20537;-64
2021/08/30 04:08:58;;;;;;;4.70;3.45;;;16.90;99.90;;;;;;5031737;28;20389;-64
2021/08/30 04:11:25;;;;;;;6.03;3.95;;;16.90;99.90;;;;;;5034229;28;20064;-64
2021/08/30 04:13:52;;;;;;;6.65;3.88;;;16.90;99.90;;;;;;5044694;28;20104;-64
2021/08/30 04:16:17;;;;;;;5.43;3.90;;;16.90;99.90;;;;;;5049144;28;20100;-64
2021/08/30 04:18:43;;;;;;;6.30;4.25;;;16.90;99.90;;;;;;5035944;28;20120;-64
2021/08/30 04:21:08;;;;;;;5.82;3.78;;;16.90;99.90;;;;;;5036357;28;20049;-64
2021/08/30 04:23:34;;;;;;;6.30;4.40;;;16.90;99.90;;;;;;5025959;28;20042;-64
2021/08/30 04:25:59;;;;;;;6.07;4.30;;;16.90;99.90;;;;;;5014358;28;20026;-64
2021/08/30 04:28:25;;;;;;;6.00;4.47;;;16.90;99.90;;;;;;5028539;28;20065;-64
2021/08/30 04:30:52;;;;;;;5.95;4.25;;;16.90;99.90;;;;;;5031820;28;20024;-64
2021/08/30 04:33:19;;;;;;;7.13;4.30;;;16.90;99.90;;;;;;5032036;28;20025;-64
2021/08/30 04:35:44;;;;;;;6.38;4.43;;;16.90;99.90;;;;;;5031634;28;20060;-64
2021/08/30 04:38:12;;;;;;;5.60;4.22;;;16.90;99.90;;;;;;5022368;28;20029;-64
2021/08/30 04:40:38;;;;;;;5.47;3.95;;;16.90;99.90;;;;;;5033297;28;20022;-64
2021/08/30 04:43:03;;;;;;;6.57;4.63;;;16.90;99.90;;;;;;5034268;28;20402;-64
2021/08/30 04:45:29;;;;;;;7.07;4.85;;;16.90;99.90;;;;;;5032923;28;20030;-64
2021/08/30 04:47:54;;;;;;;7.65;4.82;;;16.90;99.90;;;;;;5031574;28;20061;-66
2021/08/30 04:50:20;;;;;;;9.85;5.90;;;16.90;99.90;;;;;;5025789;28;20443;-65
2021/08/30 04:52:45;;;;;;;6.88;4.93;;;16.90;99.90;;;;;;5023381;28;20025;-65
2021/08/30 04:55:11;;;;;;;7.97;5.18;;;16.90;99.90;;;;;;5025282;28;20117;-65
2021/08/30 04:57:37;;;;;;;8.75;5.90;;;16.90;99.90;;;;;;5020411;28;20037;-64
2021/08/30 05:00:04;;;;;;;8.05;5.80;;;16.90;99.90;;;;;;5029650;28;20045;-65
2021/08/30 05:02:30;;;;;;;9.65;5.78;;;16.90;99.90;;;;;;5019185;28;20025;-65
2021/08/30 05:04:57;;;;;;;9.02;6.03;;;16.90;99.90;;;;;;5033548;28;20351;-68
2021/08/30 05:07:23;;;;;;;8.88;5.78;;;16.90;99.90;;;;;;5032171;28;20512;-65
2021/08/30 05:09:49;;;;;;;7.55;5.10;;;16.90;99.90;;;;;;5052829;28;20071;-66
2021/08/30 05:12:14;;;;;;;7.47;5.18;;;16.90;99.90;;;;;;5046078;28;20068;-68
2021/08/30 05:14:40;;;;;;;7.65;5.20;;;16.90;99.90;;;;;;5052734;28;20378;-69
2021/08/30 05:17:05;;;;;;;8.10;5.50;;;16.90;99.90;;;;;;5040542;28;20021;-69
2021/08/30 05:19:31;;;;;;;8.55;6.05;;;16.90;99.90;;;;;;5051774;28;20416;-68
2021/08/30 05:21:56;;;;;;;9.75;6.10;;;16.90;99.90;;;;;;5042906;28;20034;-68
2021/08/30 05:24:21;;;;;;;8.50;5.82;;;17.00;99.90;;;;;;5031463;28;20026;-68
2021/08/30 05:26:47;;;;;;;8.25;6.15;;;16.90;99.90;;;;;;5032002;28;20061;-67
2021/08/30 05:29:12;;;;;;;10.68;6.03;;;17.00;99.90;;;;;;5029835;28;20676;-67
2021/08/30 05:31:38;;;;;;;8.98;5.63;;;17.00;99.90;;;;;;5022076;28;20022;-67
2021/08/30 05:34:03;;;;;;;8.05;5.35;;;17.00;99.90;;;;;;5030375;28;20451;-67
2021/08/30 05:36:29;;;;;;;10.32;6.70;;;17.00;99.90;;;;;;5032334;28;20021;-67
2021/08/30 05:38:55;;;;;;;10.48;5.53;;;17.00;99.90;;;;;;5031893;28;20444;-66
2021/08/30 05:41:20;;;;;;;8.88;6.20;;;17.10;99.90;;;;;;5031966;28;20024;-67
2021/08/30 05:43:46;;;;;;;11.57;7.35;;;17.10;99.90;;;;;;5030906;28;20033;-67
2021/08/30 05:46:17;;;;;;;9.48;6.50;;;17.10;99.90;;;;;;5037554;28;20024;-67
2021/08/30 05:48:45;;;;;;;10.27;6.43;;;17.20;99.90;;;;;;5034962;28;20516;-67
2021/08/30 05:51:11;;;;;;;8.68;6.05;;;17.20;99.90;;;;;;5031833;28;20033;-66
2021/08/30 05:53:36;;;;;;;10.77;6.70;;;17.20;99.90;;;;;;5024815;28;20470;-66
2021/08/30 05:56:01;;;;;;;11.98;7.55;;;17.20;99.90;;;;;;5021898;28;20478;-67
2021/08/30 05:58:27;;;;;;;9.68;7.07;;;17.20;99.90;;;;;;5022678;28;20073;-67
2021/08/30 06:00:52;;;;;;;11.70;7.43;;;17.20;99.90;;;;;;5029384;28;20100;-67
2021/08/30 06:03:18;;;;;;;9.90;6.88;;;17.20;99.90;;;;;;5029681;28;20041;-68
2021/08/30 06:05:43;;;;;;;10.90;6.95;;;17.20;99.90;;;;;;5027855;28;20082;-68
2021/08/30 06:08:09;;;;;;;11.65;7.40;;;17.20;99.90;;;;;;5029260;28;20025;-68
2021/08/30 06:10:34;;;;;;;10.43;6.70;;;17.30;99.90;;;;;;5030071;28;20393;-68
2021/08/30 06:13:00;;;;;;;12.93;8.20;;;17.30;99.90;;;;;;5034175;28;20120;-68
2021/08/30 06:15:26;;;;;;;10.38;7.20;;;17.30;99.90;;;;;;5047789;28;20123;-68
2021/08/30 06:17:51;;;;;;;12.73;8.35;;;17.30;99.90;;;;;;5029928;28;20668;-69
2021/08/30 06:20:17;;;;;;;12.48;8.85;;;17.30;99.90;;;;;;5038929;28;20447;-68
2021/08/30 06:22:42;;;;;;;13.13;8.27;;;17.30;99.90;;;;;;5041601;28;20025;-68
2021/08/30 06:25:08;;;;;;;12.52;8.35;;;17.30;99.90;;;;;;5036404;28;20021;-68
2021/08/30 06:27:34;;;;;;;14.82;8.85;;;17.40;99.90;;;;;;5042183;28;20083;-68
2021/08/30 06:29:59;;;;;;;16.02;8.90;;;17.40;99.90;;;;;;5029371;28;20021;-68
2021/08/30 06:32:25;;;;;;;15.93;9.90;;;17.40;99.90;;;;;;5032819;28;20121;-68
2021/08/30 06:34:50;;;;;;;14.57;9.55;;;17.50;99.90;;;;;;5029493;28;20068;-68
2021/08/30 06:37:16;;;;;;;14.85;9.75;;;17.50;99.90;;;;;;5033283;28;20025;-68
2021/08/30 06:39:42;;;;;;;17.95;10.30;;;17.50;99.90;;;;;;5034784;28;20467;-68
2021/08/30 06:42:07;;;;;;;18.88;11.55;;;17.50;99.90;;;;;;5038776;28;20398;-68
2021/08/30 06:44:33;;;;;;;15.07;10.60;;;17.50;99.90;;;;;;5030203;28;20037;-68
2021/08/30 06:46:59;;;;;;;18.80;11.10;;;17.50;99.90;;;;;;5038615;28;20497;-68
2021/08/30 06:49:24;;;;;;;19.45;11.55;;;17.50;99.90;;;;;;5038840;28;20025;-68
2021/08/30 06:51:50;;;;;;;16.38;11.00;;;17.50;99.90;;;;;;5047202;28;20063;-67
2021/08/30 06:54:15;;;;;;;16.35;11.35;;;17.50;99.90;;;;;;5034490;28;20088;-68
2021/08/30 06:56:41;;;;;;;17.17;10.05;;;17.40;99.90;;;;;;5029403;28;20056;-68
2021/08/30 06:59:06;;;;;;;15.20;10.55;;;17.40;99.90;;;;;;5037007;28;20037;-68
2021/08/30 07:01:32;;;;;;;17.10;11.15;;;17.40;99.90;;;;;;5043966;28;20033;-68
2021/08/30 07:03:59;;;;;;;20.00;10.50;;;17.40;99.90;;;;;;5037496;28;20033;-68
2021/08/30 07:06:24;;;;;;;17.48;9.82;;;17.40;99.90;;;;;;5045452;28;20029;-68
2021/08/30 07:08:50;;;;;;;16.95;10.80;;;17.40;99.90;;;;;;5044310;28;20048;-68
2021/08/30 07:11:15;;;;;;;17.15;10.25;;;17.40;99.90;;;;;;5037693;28;20071;-68
2021/08/30 07:13:41;;;;;;;14.73;10.48;;;17.40;99.90;;;;;;5023749;28;20117;-68
2021/08/30 07:16:07;;;;;;;18.02;9.77;;;17.40;99.90;;;;;;5033174;28;20553;-68
2021/08/30 07:18:32;;;;;;;14.35;9.57;;;17.40;99.90;;;;;;5032733;28;20439;-68
2021/08/30 07:20:58;;;;;;;13.70;8.75;;;17.50;99.90;;;;;;5039814;28;20131;-69
2021/08/30 07:23:24;;;;;;;14.88;8.80;;;17.50;99.90;;;;;;5044648;28;20033;-68
2021/08/30 07:25:49;;;;;;;11.35;9.13;;;17.50;99.90;;;;;;5035158;28;20076;-72
2021/08/30 07:28:15;;;;;;;11.43;8.07;;;17.50;99.90;;;;;;5028632;28;20029;-68
2021/08/30 07:30:40;;;;;;;12.30;7.88;;;17.60;99.90;;;;;;5027602;28;20060;-68
2021/08/30 07:33:06;;;;;;;13.55;9.68;;;17.60;99.90;;;;;;5030770;28;20025;-68
2021/08/30 07:35:31;;;;;;;17.58;9.32;;;17.70;99.90;;;;;;5029337;28;20088;-72
2021/08/30 07:37:57;;;;;;;11.77;7.85;;;17.70;99.90;;;;;;5026119;28;20083;-73
2021/08/30 07:40:23;;;;;;;12.75;8.95;;;17.70;99.90;;;;;;5032363;28;20029;-73
2021/08/30 07:42:48;;;;;;;12.52;8.65;;;17.80;99.90;;;;;;5031318;28;20381;-74
2021/08/30 07:45:14;;;;;;;15.82;9.68;;;17.70;99.90;;;;;;5033247;28;20165;-76
2021/08/30 07:47:41;;;;;;;15.43;9.20;;;17.70;99.90;;;;;;5037142;28;20021;-75
2021/08/30 07:50:08;;;;;;;15.00;8.82;;;17.70;99.90;;;;;;5036465;28;20067;-78
2021/08/30 07:52:33;;;;;;;14.65;9.05;;;17.70;99.90;;;;;;5032014;28;20139;-76
2021/08/30 07:54:59;;;;;;;15.60;9.00;;;17.70;99.90;;;;;;5027827;28;20797;-76
2021/08/30 07:57:24;;;;;;;17.48;8.65;;;17.70;99.90;;;;;;5038556;28;20555;-75
2021/08/30 07:59:50;;;;;;;15.30;9.07;;;17.70;99.90;;;;;;5028314;28;20466;-75
2021/08/30 08:02:16;;;;;;;12.70;8.15;;;17.80;99.90;;;;;;5030352;28;20025;-74
2021/08/30 08:04:41;;;;;;;12.85;8.20;;;17.80;99.90;;;;;;5033668;28;20037;-78
2021/08/30 08:07:07;;;;;;;15.40;9.75;;;17.80;99.90;;;;;;5030953;28;20028;-77
2021/08/30 08:09:32;;;;;;;12.63;8.45;;;17.80;99.90;;;;;;5029540;28;20404;-77
2021/08/30 08:11:58;;;;;;;10.90;7.72;;;17.80;99.90;;;;;;5031661;28;20465;-78
2021/08/30 08:14:23;;;;;;;12.80;8.30;;;17.90;99.90;;;;;;5033856;28;20056;-77
2021/08/30 08:16:49;;;;;;;16.55;9.35;;;17.90;99.90;;;;;;5036330;28;20055;-77
2021/08/30 08:19:15;;;;;;;14.00;8.20;;;17.90;99.90;;;;;;5031625;28;20026;-78
2021/08/30 08:21:41;;;;;;;13.88;8.18;;;17.90;99.90;;;;;;5042832;28;20032;-77
2021/08/30 08:24:08;;;;;;;13.07;8.25;;;18.00;99.90;;;;;;5034039;28;20113;-78
2021/08/30 08:26:34;;;;;;;10.10;7.43;;;18.10;99.90;;;;;;5040090;28;20034;-77
2021/08/30 08:29:00;;;;;;;12.65;8.02;;;18.10;99.90;;;;;;5025269;28;20018;-77
2021/08/30 08:31:27;;;;;;;12.93;7.78;;;18.10;99.90;;;;;;5025894;28;20741;-77
2021/08/30 08:33:52;;;;;;;13.50;8.38;;;18.10;99.90;;;;;;5031900;28;20033;-77
2021/08/30 08:36:18;;;;;;;14.57;7.78;;;18.10;99.90;;;;;;5023883;28;20493;-77
2021/08/30 08:38:43;;;;;;;11.02;7.55;;;18.10;99.90;;;;;;5027516;28;20102;-78
2021/08/30 08:41:09;;;;;;;10.80;6.53;;;18.10;99.90;;;;;;5034602;28;20025;-78
2021/08/30 08:43:35;;;;;;;14.10;6.95;;;18.10;99.90;;;;;;5030679;28;20025;-77
2021/08/30 08:46:01;;;;;;;13.43;8.05;;;18.10;99.90;;;;;;5029798;28;20482;-78
2021/08/30 08:48:27;;;;;;;8.55;6.32;;;18.10;99.90;;;;;;5022633;28;20040;-77
2021/08/30 08:50:53;;;;;;;9.85;7.03;;;18.10;99.90;;;;;;5035843;28;20025;-77
2021/08/30 08:53:19;;;;;;;11.90;7.82;;;18.10;99.90;;;;;;5031716;28;20044;-77
2021/08/30 08:55:44;;;;;;;9.57;6.47;;;18.10;99.90;;;;;;5050913;28;20498;-77
2021/08/30 08:58:12;;;;;;;10.70;7.28;;;18.10;99.90;;;;;;5038392;28;20029;-77
2021/08/30 09:00:41;;;;;;;11.40;6.72;;;18.20;99.90;;;;;;5040437;28;20028;-78
2021/08/30 09:03:13;;;;;;;10.77;6.80;;;18.20;99.90;;;;;;5038762;28;20044;-78
2021/08/30 09:05:39;;;;;;;9.80;6.57;;;18.20;99.90;;;;;;5037339;28;20564;-76
2021/08/30 09:08:05;;;;;;;8.95;5.82;;;18.30;99.90;;;;;;5041126;28;20049;-78
2021/08/30 09:10:37;;;;;;;8.75;6.45;;;18.30;99.90;;;;;;5033160;28;20038;-77
2021/08/30 09:13:07;;;;;;;8.48;5.97;;;18.40;99.90;;;;;;5029250;28;20110;-78
2021/08/30 09:15:40;;;;;;;10.68;6.18;;;18.50;99.90;;;;;;5032514;28;20033;-78
2021/08/30 09:18:09;;;;;;;8.35;5.65;;;18.50;99.90;;;;;;5036103;28;20079;-77
2021/08/30 09:20:34;;;;;;;8.80;5.18;;;18.50;99.90;;;;;;5039128;28;20486;-77
2021/08/30 09:23:10;;;;;;;9.05;5.80;;;18.50;99.90;;;;;;5031756;28;20032;-78
2021/08/30 09:25:36;;;;;;;8.95;5.97;;;18.50;99.90;;;;;;5041701;28;20473;-77
2021/08/30 09:28:01;;;;;;;10.25;7.38;;;18.60;99.90;;;;;;5033612;28;20116;-77
2021/08/30 09:30:28;;;;;;;12.00;5.95;;;18.60;99.90;;;;;;5025678;28;20084;-78
2021/08/30 09:32:54;;;;;;;9.63;6.35;;;18.70;99.90;;;;;;5031092;28;20367;-77
2021/08/30 09:35:21;;;;;;;8.63;6.32;;;18.70;99.90;;;;;;5031042;28;20497;-77
2021/08/30 09:37:46;;;;;;;7.97;6.75;;;18.70;99.90;;;;;;5036553;28;20076;-77
2021/08/30 09:40:15;;;;;;;8.52;5.60;;;18.70;99.90;;;;;;5033163;28;20041;-78
2021/08/30 09:42:49;;;;;;;9.25;6.15;;;18.70;99.90;;;;;;5033274;28;20038;-77
2021/08/30 09:45:20;;;;;;;8.32;5.97;;;18.80;99.90;;;;;;5030289;28;20064;-76
2021/08/30 09:47:54;;;;;;;7.85;5.05;;;18.80;99.90;;;;;;5037549;28;20033;-76
2021/08/30 09:50:27;;;;;;;6.93;5.22;;;18.80;99.90;;;;;;5038460;28;20108;-77
2021/08/30 09:52:53;;;;;;;11.30;6.38;;;18.80;99.90;;;;;;5021359;28;20034;-78
2021/08/30 09:55:18;;;;;;;9.85;5.72;;;18.80;99.90;;;;;;5031361;28;20052;-79
2021/08/30 09:57:49;;;;;;;7.43;5.53;;;18.90;99.90;;;;;;5037172;28;20064;-77
2021/08/30 10:00:15;;;;;;;8.98;5.65;;;18.90;99.90;;;;;;5033757;28;20044;-77
2021/08/30 10:02:46;;;;;;;9.18;6.22;;;18.90;99.90;;;;;;5039309;28;20032;-77
2021/08/30 10:05:12;;;;;;;7.50;6.00;;;18.90;99.90;;;;;;5024077;28;20056;-77
2021/08/30 10:07:39;;;;;;;7.95;5.80;;;18.90;99.90;;;;;;5037858;28;20033;-77
2021/08/30 10:10:06;;;;;;;8.40;6.30;;;18.90;99.90;;;;;;5037123;28;20940;-76
2021/08/30 10:12:31;;;;;;;8.25;6.07;;;19.00;99.90;;;;;;5039904;28;20056;-76
2021/08/30 10:14:57;;;;;;;6.20;5.10;;;19.00;99.90;;;;;;5031580;28;20029;-75
2021/08/30 10:17:23;;;;;;;8.23;5.65;;;19.00;99.90;;;;;;5029410;28;20062;-75
2021/08/30 10:19:57;;;;;;;6.88;5.63;;;19.10;99.90;;;;;;5036447;28;20058;-73
2021/08/30 10:22:23;;;;;;;7.47;5.53;;;19.20;99.90;;;;;;5031335;28;20037;-75
2021/08/30 10:24:49;;;;;;;6.18;5.05;;;19.30;99.90;;;;;;5029186;28;20017;-74
2021/08/30 10:27:26;;;;;;;7.35;5.43;;;19.40;99.90;;;;;;5035872;28;20094;-74
2021/08/30 10:30:11;;;;;;;6.97;5.65;;;19.50;99.90;;;;;;5034739;28;20030;-75
2021/08/30 10:32:44;;;;;;;8.32;5.75;;;19.50;99.90;;;;;;5031222;28;20037;-75
2021/08/30 10:35:14;;;;;;;6.88;5.18;;;19.50;99.90;;;;;;5039718;28;20042;-75
2021/08/30 10:37:58;;;;;;;6.82;4.78;;;19.60;99.90;;;;;;5036492;28;20045;-76
2021/08/30 10:40:28;;;;;;;6.05;4.70;;;19.60;99.90;;;;;;5032003;28;20167;-76
2021/08/30 10:43:15;;;;;;;7.05;5.38;;;19.60;99.90;;;;;;5036415;28;20025;-75
2021/08/30 10:45:41;;;;;;;7.93;5.28;;;19.60;99.90;;;;;;5032498;28;20148;-76
2021/08/30 10:48:16;;;;;;;9.15;6.18;;;19.60;99.90;;;;;;5029390;28;20034;-75
2021/08/30 10:50:50;;;;;;;6.72;5.05;;;19.60;99.90;;;;;;5025741;28;20503;-75
2021/08/30 10:53:18;;;;;;;6.60;4.57;;;19.70;99.90;;;;;;5029302;28;20050;-73
2021/08/30 10:55:48;;;;;;;6.50;5.07;;;19.80;99.90;;;;;;5034029;28;20038;-74
2021/08/30 10:58:20;;;;;;;7.93;5.07;;;19.80;99.90;;;;;;5031996;28;20038;-74
2021/08/30 11:00:46;;;;;;;8.02;4.65;;;19.90;99.90;;;;;;5028345;28;20057;-75
2021/08/30 11:03:24;;;;;;;6.38;4.68;;;19.90;99.90;;;;;;5030905;28;20029;-75
2021/08/30 11:06:09;;;;;;;5.22;4.50;;;20.00;99.90;;;;;;5037462;28;20025;-75
2021/08/30 11:08:37;;;;;;;5.22;4.28;;;20.00;99.90;;;;;;5038440;28;20044;-74
2021/08/30 11:11:13;;;;;;;5.45;4.05;;;20.00;99.90;;;;;;5032048;28;20033;-75
2021/08/30 11:13:41;;;;;;;5.80;4.55;;;20.10;99.90;;;;;;5032060;28;20033;-75
2021/08/30 11:16:20;;;;;;;6.00;4.07;;;20.20;99.90;;;;;;5038536;28;20139;-75
2021/08/30 11:19:10;;;;;;;5.38;4.30;;;20.20;99.90;;;;;;5031618;28;20048;-76
2021/08/30 11:21:50;;;;;;;4.65;3.70;;;20.20;99.90;;;;;;5034915;28;20456;-75
2021/08/30 11:24:28;;;;;;;4.57;3.47;;;20.30;99.90;;;;;;5033072;28;20013;-75
2021/08/30 11:26:56;;;;;;;4.30;3.47;;;20.30;99.90;;;;;;5041753;28;20510;-75
2021/08/30 11:29:22;;;;;;;4.47;3.90;;;20.30;99.90;;;;;;5042786;28;20036;-75
2021/08/30 11:31:49;;;;;;;4.97;3.90;;;20.20;99.90;;;;;;5035231;28;20037;-76
2021/08/30 11:34:23;;;;;;;5.53;3.72;;;20.20;99.90;;;;;;5036967;28;20056;-75
2021/08/30 11:36:50;;;;;;;4.75;3.67;;;20.20;99.90;;;;;;5034793;28;20075;-75
2021/08/30 11:39:17;;;;;;;4.65;3.47;;;20.20;99.90;;;;;;5028053;28;20037;-76
2021/08/30 11:41:45;;;;;;;6.00;4.13;;;20.40;99.90;;;;;;5044962;28;20029;-76
2021/08/30 11:44:10;;;;;;;5.65;3.70;;;20.40;99.90;;;;;;5030749;28;20022;-75
2021/08/30 11:46:46;;;;;;;5.97;4.05;;;20.50;99.90;;;;;;5039837;28;20029;-76
2021/08/30 11:49:12;;;;;;;5.18;3.95;;;20.60;99.90;;;;;;5029658;28;20036;-76
2021/08/30 11:51:42;;;;;;;6.00;3.85;;;20.50;99.90;;;;;;5030863;28;20021;-76
2021/08/30 11:54:17;;;;;;;6.20;4.13;;;20.50;99.90;;;;;;5037786;28;20077;-76
2021/08/30 11:56:52;;;;;;;5.55;4.22;;;20.60;99.90;;;;;;5029962;28;20682;-77
2021/08/30 11:59:25;;;;;;;5.93;3.65;;;20.60;99.90;;;;;;5032542;28;20033;-77
2021/08/30 12:01:51;;;;;;;6.55;4.40;;;20.70;99.90;;;;;;5040224;28;20116;-77
2021/08/30 12:04:17;;;;;;;5.15;3.97;;;20.80;99.90;;;;;;5031548;28;20556;-75
2021/08/30 12:06:48;;;;;;;6.32;4.72;;;20.80;99.90;;;;;;5035291;28;20612;-77
2021/08/30 12:09:14;;;;;;;7.15;3.75;;;20.70;99.90;;;;;;5040764;28;20040;-75
2021/08/30 12:11:52;;;;;;;4.80;3.90;;;20.60;99.90;;;;;;5040028;28;20033;-75
2021/08/30 12:14:21;;;;;;;5.82;3.60;;;20.50;99.90;;;;;;5036257;28;20028;-73
2021/08/30 12:16:48;;;;;;;7.13;3.58;;;20.50;99.90;;;;;;5040899;28;20060;-76
2021/08/30 12:19:14;;;;;;;6.63;4.03;;;20.50;99.90;;;;;;5036633;28;20083;-76
2021/08/30 12:21:41;;;;;;;7.18;3.88;;;20.50;99.90;;;;;;5038116;28;20533;-75
2021/08/30 12:24:08;;;;;;;6.38;3.67;;;20.60;99.90;;;;;;5034424;28;20393;-76
2021/08/30 12:26:39;;;;;;;5.35;3.60;;;20.70;99.90;;;;;;5038672;28;20021;-76
2021/08/30 12:29:05;;;;;;;5.28;3.63;;;20.70;99.90;;;;;;5034313;28;20039;-75
2021/08/30 12:31:34;;;;;;;6.60;3.22;;;20.80;99.90;;;;;;5035308;28;20030;-76
2021/08/30 12:34:13;;;;;;;4.22;3.08;;;20.70;99.90;;;;;;5034057;28;20049;-76
2021/08/30 12:36:40;;;;;;;4.18;3.20;;;20.80;99.90;;;;;;5041592;28;20033;-74
2021/08/30 12:39:08;;;;;;;4.85;3.25;;;20.80;99.90;;;;;;5033995;28;20559;-76
2021/08/30 12:41:34;;;;;;;5.00;3.20;;;20.70;99.90;;;;;;5040775;28;20033;-76
2021/08/30 12:44:00;;;;;;;4.85;2.95;;;20.70;99.90;;;;;;5034501;28;20030;-76
2021/08/30 12:46:26;;;;;;;4.78;2.97;;;20.70;99.90;;;;;;5041557;28;20021;-76
2021/08/30 12:48:52;;;;;;;3.47;2.72;;;20.70;99.80;;;;;;5042977;28;20029;-76